Terminal Aerodrome Forecast
Issued by NWS

Home | Current Version | Previous Version | Text Only | Print | Product List | Glossary On
Versions: 1 2 3 4 5 6 7 8 9 10 11 12 13 14 15
000
FTUS46 KPDT 072320
TAFYKM
TAF
KYKM 072320Z 0800/0824 31010KT P6SM FEW090 SCT250
     FM080900 29009KT P6SM BKN090
     FM081900 11004KT P6SM SCT120=

USA.gov is the U.S. government's official web portal to all federal, state and local government web resources and services.